Time;durP1;ratioP1;P1;durP2;ratioP2;P2;SDS_P1;SDS_P2;PMS_P1;PMS_P2;Temp;Humidity;BMP_temperature;BMP_pressure;BME280_temperature;BME280_humidity;BME280_pressure;Samples;Min_cycle;Max_cycle;Signal;HPM_P1;HPM_P2
2021/05/22 00:01:11;;;;;;;0.65;0.50;;;19.50;44.20;;;22.96;30.66;99736.47;5073936;28;20047;-44
2021/05/22 00:03:37;;;;;;;1.27;0.80;;;19.50;44.30;;;22.95;30.58;99735.59;5074087;28;20052;-44
2021/05/22 00:06:03;;;;;;;1.65;0.90;;;19.50;44.30;;;22.94;30.63;99726.78;5025737;28;20045;-49
2021/05/22 00:08:29;;;;;;;0.80;0.77;;;19.50;44.20;;;22.95;30.56;99727.63;5092410;28;20043;-46
2021/05/22 00:10:54;;;;;;;1.00;0.60;;;19.50;44.30;;;22.93;30.58;99722.41;5057475;28;20050;-44
2021/05/22 00:13:20;;;;;;;1.05;0.68;;;19.50;44.30;;;22.91;30.64;99710.22;5058824;28;20055;-48
2021/05/22 00:15:46;;;;;;;0.82;0.70;;;19.50;44.30;;;22.92;30.68;99720.75;5077392;28;20048;-48
2021/05/22 00:18:12;;;;;;;1.95;0.93;;;19.50;44.30;;;22.92;30.63;99712.75;5077118;28;20048;-48
2021/05/22 00:20:38;;;;;;;0.65;0.63;;;19.50;44.30;;;22.92;30.65;99714.56;5062697;28;20063;-46
2021/05/22 00:23:05;;;;;;;1.23;0.73;;;19.50;44.30;;;22.93;30.57;99710.91;5060207;28;20040;-46
2021/05/22 00:25:30;;;;;;;0.68;0.68;;;19.50;44.30;;;22.92;30.61;99712.75;5077298;28;20074;-44
2021/05/22 00:27:56;;;;;;;0.57;0.50;;;19.40;44.30;;;22.90;30.66;99696.06;5060656;28;20040;-45
2021/05/22 00:30:22;;;;;;;1.13;0.80;;;19.40;44.30;;;22.92;30.50;99710.09;5060694;28;20054;-44
2021/05/22 00:32:48;;;;;;;1.13;0.70;;;19.50;44.30;;;22.89;30.56;99699.69;5061248;28;20047;-43
2021/05/22 00:35:14;;;;;;;1.65;0.77;;;19.40;44.30;;;22.93;30.69;99697.59;5060583;28;20379;-43
2021/05/22 00:37:40;;;;;;;0.75;0.70;;;19.40;44.30;;;22.92;30.49;99703.88;5043429;28;20048;-44
2021/05/22 00:40:07;;;;;;;0.90;0.70;;;19.40;44.30;;;22.90;30.66;99700.53;5059964;28;20531;-43
2021/05/22 00:42:36;;;;;;;0.70;0.60;;;19.40;44.30;;;22.91;30.72;99699.56;5044342;28;20073;-46
2021/05/22 00:45:15;;;;;;;0.60;0.60;;;19.40;44.30;;;22.89;30.50;99701.53;5060811;28;20127;-43
2021/05/22 00:47:49;;;;;;;0.60;0.60;;;19.40;44.30;;;22.87;30.63;99704.31;5060464;28;20129;-44
2021/05/22 00:50:27;;;;;;;1.30;0.75;;;19.40;44.30;;;22.88;30.66;99710.47;5044073;28;20396;-44
2021/05/22 00:52:54;;;;;;;1.10;0.60;;;19.40;44.90;;;22.90;30.51;99709.38;5044780;28;20480;-44
2021/05/22 00:55:21;;;;;;;0.85;0.73;;;19.40;44.40;;;22.86;30.66;99704.44;5058827;28;20040;-43
2021/05/22 00:57:47;;;;;;;0.73;0.57;;;19.40;44.30;;;22.84;30.75;99701.91;5043501;28;20097;-44
2021/05/22 01:00:19;;;;;;;0.77;0.60;;;19.40;44.40;;;22.85;30.84;99708.91;5076383;28;20135;-46
2021/05/22 01:02:47;;;;;;;0.80;0.57;;;19.40;44.40;;;22.82;30.54;99709.22;5060349;28;20062;-44
2021/05/22 01:05:14;;;;;;;0.77;0.70;;;19.40;44.40;;;22.83;30.75;99702.06;5059491;28;20044;-48
2021/05/22 01:07:43;;;;;;;0.70;0.70;;;19.40;44.40;;;22.82;30.70;99711.88;5059514;28;20837;-44
2021/05/22 01:10:10;;;;;;;0.85;0.75;;;19.40;44.40;;;22.81;30.72;99698.69;5042324;28;20049;-45
2021/05/22 01:12:41;;;;;;;0.50;0.50;;;19.40;44.40;;;22.79;30.78;99703.28;5059381;28;20130;-43
2021/05/22 01:15:16;;;;;;;2.72;0.70;;;19.40;44.50;;;22.84;30.91;99709.91;5042924;28;20059;-44
2021/05/22 01:17:49;;;;;;;1.02;0.68;;;19.40;44.50;;;22.81;30.69;99707.50;5042745;28;20059;-46
2021/05/22 01:20:42;;;;;;;1.02;0.63;;;19.30;44.50;;;22.81;30.74;99701.34;5059508;28;20052;-45
2021/05/22 01:23:21;;;;;;;1.13;0.60;;;19.30;44.50;;;22.79;30.79;99700.63;5059537;28;20044;-43
2021/05/22 01:25:50;;;;;;;1.23;0.80;;;19.40;44.50;;;22.78;30.70;99693.63;5039676;28;20124;-45
2021/05/22 01:28:16;;;;;;;0.90;0.63;;;19.40;44.50;;;22.78;30.78;99696.28;5076155;28;20149;-44
2021/05/22 01:30:44;;;;;;;0.85;0.60;;;19.40;44.50;;;22.80;30.71;99697.00;5075994;28;20113;-45
2021/05/22 01:33:10;;;;;;;0.60;0.55;;;19.40;44.50;;;22.83;30.70;99700.22;5027338;28;20044;-46
2021/05/22 01:35:38;;;;;;;1.00;0.80;;;19.30;44.50;;;22.80;30.88;99686.31;5058982;28;20442;-44
2021/05/22 01:38:04;;;;;;;1.17;0.70;;;19.30;44.40;;;22.81;30.83;99693.34;5059039;28;20097;-44
2021/05/22 01:40:30;;;;;;;0.70;0.57;;;19.40;44.50;;;22.82;30.59;99695.88;5042407;28;20048;-44
2021/05/22 01:42:56;;;;;;;1.00;0.80;;;19.30;44.50;;;22.80;30.96;99689.81;5058866;28;20127;-45
2021/05/22 01:45:29;;;;;;;0.63;0.50;;;19.30;44.50;;;22.76;30.75;99677.75;5059034;28;20052;-44
2021/05/22 01:47:57;;;;;;;2.60;0.80;;;19.30;44.50;;;22.75;30.83;99679.59;5075676;28;20079;-45
2021/05/22 01:50:24;;;;;;;1.13;0.70;;;19.30;44.50;;;22.77;30.72;99674.13;5042940;28;20060;-45
2021/05/22 01:52:53;;;;;;;1.48;0.68;;;19.30;44.50;;;22.78;30.79;99681.13;5024002;28;20476;-45
2021/05/22 01:55:20;;;;;;;0.60;0.60;;;19.30;44.60;;;22.77;30.71;99674.13;5027803;28;20105;-44
2021/05/22 01:57:46;;;;;;;0.68;0.65;;;19.30;44.60;;;22.76;30.76;99678.59;5042251;28;20410;-44
2021/05/22 02:00:14;;;;;;;0.63;0.60;;;19.30;44.60;;;22.74;30.86;99680.56;5024752;28;20080;-44
2021/05/22 02:03:17;;;;;;;0.60;0.60;;;19.30;44.60;;;22.73;30.96;99683.34;5093823;28;20040;-44
2021/05/22 02:05:46;;;;;;;1.52;1.00;;;19.30;44.60;;;22.74;30.89;99685.91;5075935;28;20069;-45
2021/05/22 02:08:18;;;;;;;0.73;0.73;;;19.30;44.60;;;22.71;30.87;99683.50;5058500;28;20056;-44
2021/05/22 02:10:47;;;;;;;0.70;0.70;;;19.30;44.60;;;22.75;30.85;99681.41;5058689;28;20487;-44
2021/05/22 02:13:14;;;;;;;5.45;0.75;;;19.30;44.60;;;22.72;30.90;99682.53;5058719;28;20043;-45
2021/05/22 02:15:41;;;;;;;1.17;0.95;;;19.30;44.70;;;22.72;30.94;99685.19;5058462;28;20047;-45
2021/05/22 02:18:11;;;;;;;0.93;0.82;;;19.30;44.70;;;22.71;31.05;99688.00;5058319;28;20052;-45
2021/05/22 02:20:37;;;;;;;0.60;0.60;;;19.30;44.70;;;22.73;30.78;99696.69;5058504;28;20048;-45
2021/05/22 02:23:05;;;;;;;1.00;0.60;;;19.30;44.70;;;22.72;30.72;99692.31;5058799;28;20056;-46
2021/05/22 02:25:31;;;;;;;0.65;0.65;;;19.20;44.70;;;22.70;30.91;99684.50;5043155;28;20055;-44
2021/05/22 02:28:02;;;;;;;0.77;0.60;;;19.20;44.60;;;22.69;30.90;99688.13;5058406;28;20044;-45
2021/05/22 02:30:28;;;;;;;0.88;0.65;;;19.30;44.70;;;22.71;31.05;99685.31;5042392;28;20085;-46
2021/05/22 02:32:56;;;;;;;0.60;0.50;;;19.30;44.70;;;22.69;30.90;99682.78;5058249;28;20043;-45
2021/05/22 02:35:22;;;;;;;0.80;0.60;;;19.20;44.70;;;22.68;30.92;99685.59;5057742;28;20149;-47
2021/05/22 02:37:50;;;;;;;1.38;0.80;;;19.20;44.70;;;22.68;30.84;99681.09;5058781;28;20050;-45
2021/05/22 02:40:21;;;;;;;0.60;0.60;;;19.20;44.70;;;22.64;30.92;99673.53;5041446;28;20093;-46
2021/05/22 02:42:54;;;;;;;0.75;0.60;;;19.20;44.70;;;22.66;30.97;99684.88;5058189;28;20044;-45
2021/05/22 02:45:24;;;;;;;0.82;0.55;;;19.20;44.70;;;22.66;30.84;99680.41;5074687;28;20056;-45
2021/05/22 02:47:54;;;;;;;0.80;0.60;;;19.20;44.70;;;22.64;31.09;99674.38;5043323;28;20041;-44
2021/05/22 02:50:22;;;;;;;1.05;0.70;;;19.20;44.70;;;22.66;30.83;99669.72;5058617;28;20044;-46
2021/05/22 02:52:49;;;;;;;1.02;0.60;;;19.20;44.70;;;22.66;31.00;99667.06;5058134;28;20058;-45
2021/05/22 02:55:15;;;;;;;0.60;0.60;;;19.20;44.70;;;22.68;30.99;99664.28;5057919;28;20044;-45
2021/05/22 02:57:43;;;;;;;1.92;0.65;;;19.20;44.70;;;22.68;30.95;99666.94;5020880;28;20385;-49
2021/05/22 03:00:10;;;;;;;1.33;0.80;;;19.20;44.70;;;22.70;30.86;99665.84;5057994;28;20415;-48
2021/05/22 03:02:38;;;;;;;0.80;0.80;;;19.20;44.70;;;22.67;30.85;99655.44;5057841;28;20048;-47
2021/05/22 03:05:06;;;;;;;1.25;0.70;;;19.20;44.70;;;22.68;30.81;99653.63;5058105;28;20101;-47
2021/05/22 03:07:33;;;;;;;0.60;0.60;;;19.30;44.70;;;22.71;30.92;99651.53;5058110;28;20096;-47
2021/05/22 03:09:59;;;;;;;0.70;0.70;;;19.20;44.70;;;22.74;30.95;99653.91;5058329;28;20383;-47
2021/05/22 03:12:31;;;;;;;0.88;0.70;;;19.20;44.70;;;22.72;30.99;99655.00;5055385;28;20055;-48
2021/05/22 03:14:57;;;;;;;1.15;0.57;;;19.20;44.70;;;22.72;30.72;99650.56;5058020;28;20047;-46
2021/05/22 03:17:23;;;;;;;1.35;0.88;;;19.30;44.70;;;22.68;30.91;99643.78;5041357;28;20040;-45
2021/05/22 03:19:49;;;;;;;0.70;0.70;;;19.30;44.70;;;22.73;30.82;99646.06;5074390;28;20513;-47
2021/05/22 03:22:15;;;;;;;0.90;0.65;;;19.30;44.70;;;22.75;30.94;99646.75;5059885;28;20132;-48
2021/05/22 03:24:41;;;;;;;1.00;0.55;;;19.30;44.60;;;22.74;30.96;99643.25;5042513;28;20056;-44
2021/05/22 03:27:07;;;;;;;0.85;0.70;;;19.30;44.60;;;22.78;30.84;99643.81;5040189;28;20046;-45
2021/05/22 03:29:33;;;;;;;1.52;0.82;;;19.30;44.60;;;22.79;30.84;99629.53;5057986;28;20076;-44
2021/05/22 03:31:59;;;;;;;0.60;0.60;;;19.40;44.50;;;22.88;30.86;99634.03;5057839;28;20135;-45
2021/05/22 03:34:26;;;;;;;1.50;0.80;;;19.60;44.20;;;22.96;30.88;99633.34;5057559;28;20475;-45
2021/05/22 03:36:53;;;;;;;0.52;0.50;;;19.70;44.00;;;23.06;30.61;99638.69;5090767;28;20080;-45
2021/05/22 03:39:20;;;;;;;0.88;0.65;;;19.90;43.70;;;23.13;30.81;99638.03;5057434;28;20123;-45
2021/05/22 03:41:47;;;;;;;0.98;0.80;;;20.00;43.40;;;23.21;30.47;99639.16;5057687;28;20065;-45
2021/05/22 03:44:13;;;;;;;0.52;0.52;;;20.00;43.10;;;23.28;30.20;99637.63;5057228;28;20147;-45
2021/05/22 03:46:39;;;;;;;0.85;0.60;;;20.10;43.10;;;23.37;30.26;99628.78;5039987;28;20064;-45
2021/05/22 03:49:05;;;;;;;1.10;0.70;;;20.30;42.90;;;23.45;30.26;99639.56;5060316;28;20058;-49
2021/05/22 03:51:31;;;;;;;0.75;0.60;;;20.30;42.70;;;23.50;30.22;99636.50;5044148;28;20040;-44
2021/05/22 03:53:57;;;;;;;1.65;0.90;;;20.40;42.60;;;23.60;29.95;99636.50;5044762;28;20049;-47
2021/05/22 03:56:24;;;;;;;1.67;0.80;;;20.60;42.30;;;23.71;29.75;99636.34;5060624;28;20491;-45
2021/05/22 03:58:50;;;;;;;0.77;0.77;;;20.70;42.10;;;23.80;29.85;99626.63;5077655;28;20051;-47
2021/05/22 04:01:17;;;;;;;1.08;0.80;;;20.90;41.80;;;23.91;29.56;99634.50;5043209;28;20041;-45
2021/05/22 04:03:42;;;;;;;0.82;0.80;;;21.00;41.60;;;24.03;29.50;99638.69;5044421;28;20360;-49
2021/05/22 04:06:08;;;;;;;1.02;0.65;;;21.10;41.40;;;24.12;29.43;99631.63;5060956;28;20040;-46
2021/05/22 04:08:34;;;;;;;0.80;0.70;;;21.20;41.20;;;24.25;29.15;99639.31;5060943;28;20044;-46
2021/05/22 04:11:00;;;;;;;1.63;0.77;;;21.30;41.00;;;24.34;29.20;99635.78;5060637;28;20048;-44
2021/05/22 04:13:26;;;;;;;1.13;0.60;;;21.40;40.90;;;24.47;29.04;99635.44;5060514;28;20044;-48
2021/05/22 04:15:52;;;;;;;0.60;0.60;;;21.50;40.70;;;24.57;28.88;99643.44;5060502;28;20086;-45
2021/05/22 04:18:18;;;;;;;1.23;0.80;;;21.60;40.50;;;24.66;28.79;99633.69;5060314;28;20551;-49
2021/05/22 04:20:43;;;;;;;0.70;0.70;;;21.60;40.40;;;24.74;28.79;99634.66;5060280;28;20052;-46
2021/05/22 04:23:09;;;;;;;2.00;0.80;;;21.70;40.40;;;24.77;28.58;99636.16;5062465;28;20055;-44
2021/05/22 04:25:35;;;;;;;1.23;0.68;;;21.70;40.40;;;24.83;28.49;99640.91;5042917;28;20391;-47
2021/05/22 04:28:01;;;;;;;0.60;0.60;;;21.70;40.30;;;24.89;28.46;99637.66;5060038;28;20048;-49
2021/05/22 04:30:27;;;;;;;0.77;0.70;;;21.70;40.30;;;24.97;28.37;99634.22;5095410;28;20128;-46
2021/05/22 04:32:54;;;;;;;1.05;0.80;;;21.80;40.30;;;25.06;28.12;99648.50;5077183;28;20479;-47
2021/05/22 04:35:21;;;;;;;1.08;0.70;;;21.80;40.20;;;25.09;28.00;99643.72;5044216;28;20084;-50
2021/05/22 04:37:46;;;;;;;1.65;0.70;;;21.70;40.20;;;25.10;28.22;99639.19;5076925;28;20434;-48
2021/05/22 04:40:12;;;;;;;2.20;0.73;;;21.70;40.30;;;25.13;28.08;99636.22;5060387;28;20044;-44
2021/05/22 04:42:38;;;;;;;1.17;0.65;;;21.70;40.40;;;25.16;28.11;99641.28;5059825;28;20050;-46
2021/05/22 04:45:06;;;;;;;1.88;0.73;;;21.60;40.40;;;25.15;28.08;99636.91;5059941;28;20040;-47
2021/05/22 04:47:33;;;;;;;1.08;0.63;;;21.60;40.50;;;25.14;28.06;99637.88;5076413;28;20093;-49
2021/05/22 04:49:59;;;;;;;1.77;0.68;;;21.50;40.50;;;25.10;28.01;99634.69;5041442;28;20049;-45
2021/05/22 04:52:25;;;;;;;1.48;0.70;;;21.50;40.60;;;25.13;28.17;99642.41;5059884;28;20060;-46
2021/05/22 04:54:51;;;;;;;0.60;0.50;;;21.50;40.60;;;25.12;28.19;99640.72;5060220;28;20059;-46
2021/05/22 04:57:17;;;;;;;0.77;0.68;;;21.50;40.60;;;25.13;28.00;99644.25;5060201;28;20499;-48
2021/05/22 04:59:44;;;;;;;0.70;0.60;;;21.60;40.70;;;25.14;27.92;99641.44;5076087;28;20044;-45
2021/05/22 05:02:10;;;;;;;1.05;0.70;;;21.60;40.70;;;25.12;28.04;99639.88;5060212;28;20055;-45
2021/05/22 05:04:36;;;;;;;0.60;0.60;;;21.60;40.60;;;25.12;27.86;99632.69;5042980;28;20399;-45
2021/05/22 05:07:05;;;;;;;0.60;0.60;;;21.60;40.70;;;25.17;28.22;99637.59;5076452;28;20101;-45
2021/05/22 05:09:34;;;;;;;1.25;0.95;;;21.60;40.60;;;25.19;28.08;99637.44;5059543;28;20135;-44
2021/05/22 05:12:06;;;;;;;0.68;0.60;;;21.60;40.60;;;25.11;28.09;99630.19;5059571;28;20114;-45
2021/05/22 05:14:32;;;;;;;0.95;0.70;;;21.60;40.60;;;25.14;27.86;99628.06;5076047;28;20055;-44
2021/05/22 05:16:58;;;;;;;0.82;0.70;;;21.60;40.60;;;25.21;27.87;99625.59;5076233;28;20055;-45
2021/05/22 05:19:27;;;;;;;1.10;0.73;;;21.60;40.50;;;25.22;28.00;99631.78;5042155;28;20076;-44
2021/05/22 05:21:55;;;;;;;0.90;0.80;;;21.70;40.50;;;25.24;28.04;99630.66;5059864;28;20058;-47
2021/05/22 05:24:21;;;;;;;1.13;0.80;;;21.70;40.40;;;25.32;27.90;99627.22;5059988;28;20128;-45
2021/05/22 05:26:49;;;;;;;0.90;0.63;;;21.80;40.40;;;25.36;27.82;99625.09;5042630;28;20517;-44
2021/05/22 05:29:16;;;;;;;1.00;0.75;;;21.90;40.30;;;25.41;27.93;99631.69;5075810;28;20052;-44
2021/05/22 05:31:43;;;;;;;0.93;0.60;;;21.90;40.30;;;25.46;27.85;99623.16;5059449;28;20059;-47
2021/05/22 05:34:09;;;;;;;0.73;0.65;;;21.90;40.20;;;25.51;27.59;99626.25;5024603;28;20045;-45
2021/05/22 05:36:36;;;;;;;1.40;0.60;;;22.00;40.20;;;25.54;27.71;99622.41;5061071;28;20086;-47
2021/05/22 05:39:05;;;;;;;1.08;0.70;;;22.00;40.10;;;25.56;27.44;99629.28;5060394;28;20107;-46
2021/05/22 05:41:31;;;;;;;1.48;0.80;;;22.00;40.10;;;25.55;27.66;99622.25;5059138;28;20442;-44
2021/05/22 05:43:57;;;;;;;1.20;0.60;;;21.90;40.10;;;25.52;27.60;99622.56;5042863;28;20087;-46
2021/05/22 05:46:23;;;;;;;0.90;0.63;;;21.80;40.20;;;25.49;27.56;99620.19;5059188;28;20070;-44
2021/05/22 05:48:49;;;;;;;1.60;0.52;;;21.80;40.30;;;25.48;27.66;99618.50;5094360;28;20052;-45
2021/05/22 05:51:15;;;;;;;2.20;0.70;;;21.70;40.30;;;25.44;27.41;99618.00;5075645;28;20040;-47
2021/05/22 05:53:41;;;;;;;1.38;0.73;;;21.70;40.50;;;25.41;27.57;99610.28;5059441;28;20044;-44
2021/05/22 05:56:06;;;;;;;0.73;0.73;;;21.60;40.50;;;25.42;27.52;99621.81;5058751;28;20055;-46
2021/05/22 05:58:33;;;;;;;0.63;0.63;;;21.60;40.50;;;25.39;27.45;99625.63;5042346;28;20178;-46
2021/05/22 06:01:03;;;;;;;1.73;0.70;;;21.60;40.50;;;25.35;27.54;99626.94;5058842;28;20044;-45
2021/05/22 06:03:31;;;;;;;0.88;0.70;;;21.60;40.60;;;25.36;27.60;99625.09;5075845;28;20135;-45
2021/05/22 06:05:57;;;;;;;0.85;0.63;;;21.60;40.60;;;25.38;27.64;99623.13;5094123;28;20040;-44
2021/05/22 06:08:24;;;;;;;0.85;0.75;;;21.60;40.50;;;25.39;27.51;99622.09;5059238;28;20044;-44
2021/05/22 06:10:52;;;;;;;1.35;0.70;;;21.60;40.50;;;25.40;27.56;99627.31;5075149;28;20047;-45
2021/05/22 06:13:26;;;;;;;0.85;0.50;;;21.70;40.60;;;25.42;27.81;99627.16;5075486;28;20048;-46
2021/05/22 06:16:11;;;;;;;0.57;0.57;;;21.70;40.40;;;25.45;27.27;99633.03;5058344;28;20048;-44
2021/05/22 06:18:39;;;;;;;1.00;0.68;;;21.70;40.30;;;25.46;27.59;99613.31;5092003;28;20055;-45
2021/05/22 06:21:07;;;;;;;2.35;0.75;;;21.80;40.40;;;25.53;27.47;99624.25;5042176;28;20407;-44
2021/05/22 06:23:33;;;;;;;0.60;0.60;;;21.90;40.30;;;25.58;27.49;99619.25;5075023;28;20079;-46
2021/05/22 06:26:00;;;;;;;1.10;0.60;;;21.90;40.10;;;25.57;27.21;99622.09;5075130;28;20059;-45
2021/05/22 06:28:26;;;;;;;0.70;0.70;;;21.90;40.10;;;25.56;27.24;99607.03;5075009;28;20060;-47
2021/05/22 06:30:54;;;;;;;0.70;0.70;;;21.80;40.10;;;25.56;27.11;99625.75;5075317;28;20097;-45
2021/05/22 06:33:20;;;;;;;0.55;0.55;;;21.80;40.20;;;25.54;27.29;99617.03;5058353;28;20559;-47
2021/05/22 06:35:47;;;;;;;1.10;0.95;;;21.80;40.20;;;25.50;27.35;99620.03;5058530;28;20051;-47
2021/05/22 06:38:13;;;;;;;1.02;0.80;;;21.70;40.30;;;25.43;27.38;99618.97;5058096;28;20056;-45
2021/05/22 06:40:39;;;;;;;0.75;0.50;;;21.70;40.40;;;25.43;27.44;99627.00;5059286;28;20480;-50
2021/05/22 06:43:04;;;;;;;0.90;0.80;;;21.60;40.40;;;25.40;27.52;99624.63;5041621;28;20070;-44
2021/05/22 06:45:40;;;;;;;1.02;0.60;;;21.60;40.50;;;25.35;27.31;99623.41;5057882;28;20048;-45
2021/05/22 06:48:07;;;;;;;0.68;0.68;;;21.50;40.50;;;25.29;27.40;99620.38;5041724;28;20048;-47
2021/05/22 06:50:34;;;;;;;1.35;0.73;;;21.50;40.70;;;25.24;27.44;99635.16;5041908;28;20072;-44
2021/05/22 06:53:00;;;;;;;1.67;0.70;;;21.50;40.80;;;25.17;27.60;99618.03;5058345;28;20407;-45
2021/05/22 06:55:26;;;;;;;0.82;0.70;;;21.40;40.70;;;25.17;27.73;99623.38;5050691;28;20053;-46
2021/05/22 06:57:52;;;;;;;0.73;0.60;;;21.50;40.80;;;25.18;27.66;99625.06;5059098;28;20538;-45
2021/05/22 07:00:18;;;;;;;0.70;0.60;;;21.50;40.70;;;25.22;27.66;99631.78;5059939;28;20554;-49
2021/05/22 07:02:44;;;;;;;0.82;0.80;;;21.50;40.70;;;25.22;27.63;99631.78;5058123;28;20104;-46
2021/05/22 07:05:11;;;;;;;1.05;0.70;;;21.50;40.60;;;25.25;27.65;99634.16;5042386;28;20044;-47
2021/05/22 07:07:38;;;;;;;0.93;0.77;;;21.60;40.50;;;25.27;27.69;99632.19;5074739;28;20080;-46
2021/05/22 07:10:09;;;;;;;0.70;0.63;;;21.60;40.50;;;25.26;27.63;99620.66;5074661;28;20090;-46
2021/05/22 07:12:35;;;;;;;0.65;0.65;;;21.70;40.40;;;25.31;27.65;99621.06;5057808;28;20048;-44
2021/05/22 07:15:01;;;;;;;1.25;0.60;;;21.70;40.30;;;25.35;27.56;99612.72;5092910;28;20093;-46
2021/05/22 07:17:26;;;;;;;1.10;0.73;;;21.70;40.30;;;25.39;27.68;99625.63;5041186;28;20131;-48
2021/05/22 07:19:52;;;;;;;1.50;0.60;;;21.80;40.20;;;25.45;27.50;99622.31;5074352;28;20068;-48
2021/05/22 07:22:18;;;;;;;2.58;1.00;;;21.90;40.10;;;25.48;27.43;99615.84;5059833;28;20065;-45
2021/05/22 07:24:44;;;;;;;0.47;0.40;;;21.90;40.00;;;25.56;27.24;99612.38;5078256;28;20054;-45
2021/05/22 07:27:09;;;;;;;1.08;0.98;;;22.00;39.90;;;25.64;27.29;99617.78;5043001;28;20048;-45
2021/05/22 07:29:35;;;;;;;1.48;1.08;;;22.00;39.70;;;25.69;27.25;99619.03;5077659;28;20040;-46
2021/05/22 07:32:01;;;;;;;0.60;0.60;;;22.10;39.60;;;25.65;27.21;99606.09;5096646;28;20048;-46
2021/05/22 07:34:27;;;;;;;1.05;0.68;;;22.10;39.60;;;25.73;27.08;99616.88;5059871;28;20045;-46
2021/05/22 07:36:53;;;;;;;0.60;0.60;;;22.20;39.60;;;25.76;26.99;99611.22;5077663;28;20059;-44
2021/05/22 07:39:20;;;;;;;0.93;0.60;;;22.20;39.60;;;25.81;27.05;99624.97;5060976;28;20100;-48
2021/05/22 07:41:47;;;;;;;0.85;0.70;;;22.20;39.50;;;25.83;27.12;99606.06;5060072;28;20392;-44
2021/05/22 07:44:13;;;;;;;0.57;0.57;;;22.20;39.40;;;25.88;26.88;99622.50;5077568;28;20177;-46
2021/05/22 07:46:39;;;;;;;1.40;0.65;;;22.20;39.30;;;25.92;26.96;99620.34;5056560;28;20051;-47
2021/05/22 07:49:05;;;;;;;1.55;0.85;;;22.30;39.40;;;25.92;26.81;99617.66;5062410;28;20060;-47
2021/05/22 07:51:31;;;;;;;0.60;0.60;;;22.20;39.30;;;25.92;26.83;99620.34;5045717;28;20049;-46
2021/05/22 07:53:57;;;;;;;0.98;0.70;;;22.20;39.30;;;25.92;27.02;99610.47;5061483;28;20123;-44
2021/05/22 07:56:23;;;;;;;1.05;0.63;;;22.20;39.30;;;25.92;26.75;99606.94;5095491;28;20052;-45
2021/05/22 07:58:49;;;;;;;0.77;0.77;;;22.20;39.80;;;25.94;26.87;99621.84;5045358;28;20106;-47
2021/05/22 08:01:14;;;;;;;1.10;0.60;;;22.30;39.30;;;25.94;26.77;99621.00;5056622;28;20048;-44
2021/05/22 08:03:40;;;;;;;0.68;0.60;;;22.20;39.30;;;25.95;26.82;99620.03;5076930;28;20058;-50
2021/05/22 08:06:06;;;;;;;0.95;0.68;;;22.20;39.30;;;25.96;26.71;99617.22;5046547;28;20140;-48
2021/05/22 08:08:32;;;;;;;1.08;0.70;;;22.20;39.30;;;25.91;26.79;99610.63;5060739;28;20053;-45
2021/05/22 08:10:58;;;;;;;0.60;0.45;;;22.20;39.40;;;25.95;26.54;99625.38;5095425;28;20136;-45
2021/05/22 08:13:28;;;;;;;1.05;0.70;;;22.20;39.40;;;25.93;26.78;99622.00;5059968;28;20049;-45
2021/05/22 08:15:58;;;;;;;0.60;0.60;;;22.20;39.30;;;25.96;26.61;99622.59;5077614;28;20056;-45
2021/05/22 08:18:24;;;;;;;0.55;0.55;;;22.20;39.30;;;25.95;26.62;99606.63;5060429;28;20070;-45
2021/05/22 08:20:53;;;;;;;0.73;0.60;;;22.20;39.30;;;25.92;26.62;99615.81;5058933;28;20049;-46
2021/05/22 08:23:19;;;;;;;0.60;0.60;;;22.20;39.30;;;25.88;26.75;99612.63;5044338;28;20052;-45
2021/05/22 08:25:44;;;;;;;1.17;0.82;;;22.10;39.40;;;25.87;26.69;99615.44;5060199;28;20079;-44
2021/05/22 08:28:10;;;;;;;1.35;0.60;;;22.10;39.50;;;25.86;26.76;99630.69;5059089;28;20087;-45
2021/05/22 08:30:36;;;;;;;1.42;0.60;;;22.10;39.60;;;25.81;26.69;99635.66;5043630;28;20044;-48
2021/05/22 08:33:02;;;;;;;0.57;0.50;;;22.00;39.60;;;25.79;26.79;99626.94;5076737;28;20127;-47
2021/05/22 08:35:30;;;;;;;0.60;0.60;;;21.90;39.60;;;25.74;26.86;99631.91;5077123;28;20051;-44
2021/05/22 08:37:56;;;;;;;1.05;0.60;;;21.90;39.70;;;25.66;26.95;99624.69;5059913;28;20158;-45
2021/05/22 08:40:27;;;;;;;0.60;0.57;;;21.90;39.80;;;25.66;27.00;99635.38;5060549;28;20094;-45
2021/05/22 08:42:54;;;;;;;2.28;0.65;;;21.90;39.80;;;25.63;26.88;99633.03;5058552;28;20044;-46
2021/05/22 08:45:23;;;;;;;0.63;0.60;;;21.80;39.80;;;25.60;26.80;99633.31;5059877;28;20060;-47
2021/05/22 08:47:53;;;;;;;0.60;0.50;;;21.80;39.80;;;25.59;26.99;99636.16;5027593;28;20048;-47
2021/05/22 08:50:21;;;;;;;0.55;0.55;;;21.80;39.90;;;25.60;26.96;99636.00;5060319;28;20490;-49
2021/05/22 08:52:49;;;;;;;0.73;0.73;;;21.80;39.90;;;25.59;27.02;99638.84;5059834;28;20075;-47
2021/05/22 08:55:15;;;;;;;1.17;0.70;;;21.80;40.00;;;25.54;26.95;99639.28;5043205;28;20044;-48
2021/05/22 08:57:42;;;;;;;2.30;0.70;;;21.80;40.00;;;25.54;26.95;99639.28;5059786;28;20537;-47
2021/05/22 09:00:14;;;;;;;0.70;0.57;;;21.70;40.00;;;25.53;27.13;99634.94;5076429;28;20052;-45
2021/05/22 09:02:40;;;;;;;1.35;0.60;;;21.70;40.00;;;25.51;27.06;99640.44;5059776;28;20074;-45
2021/05/22 09:05:26;;;;;;;1.05;0.60;;;21.70;40.00;;;25.46;26.99;99636.53;5076308;28;20048;-44
2021/05/22 09:07:58;;;;;;;0.60;0.50;;;21.70;40.00;;;25.48;27.23;99653.31;5039389;28;20396;-44
2021/05/22 09:10:27;;;;;;;1.90;0.70;;;21.70;40.60;;;25.45;27.13;99657.13;5059841;28;20048;-45
2021/05/22 09:13:24;;;;;;;1.10;0.60;;;21.70;40.10;;;25.40;27.05;99669.28;5059599;28;20051;-44
2021/05/22 09:16:06;;;;;;;1.27;0.73;;;21.60;40.10;;;25.36;26.95;99663.41;5071657;28;20484;-44
2021/05/22 09:18:35;;;;;;;1.00;0.60;;;21.60;40.20;;;25.30;27.18;99664.00;5076190;28;20088;-45
2021/05/22 09:21:06;;;;;;;0.60;0.60;;;21.60;40.30;;;25.30;27.49;99670.19;5044120;28;20056;-47
2021/05/22 09:23:39;;;;;;;1.02;0.50;;;21.50;40.30;;;25.30;27.19;99662.16;5094316;28;20401;-44
2021/05/22 09:26:12;;;;;;;0.50;0.50;;;21.50;40.30;;;25.30;27.29;99672.03;5075900;28;20240;-45
2021/05/22 09:28:47;;;;;;;0.65;0.55;;;21.50;40.40;;;25.27;27.27;99667.81;5045336;28;20052;-44
2021/05/22 09:31:21;;;;;;;1.83;0.57;;;21.50;40.30;;;25.25;27.24;99663.59;5059509;28;20055;-45
2021/05/22 09:33:48;;;;;;;0.77;0.63;;;21.50;40.30;;;25.27;27.21;99669.66;5042887;28;20040;-44
2021/05/22 09:36:16;;;;;;;0.63;0.63;;;21.50;40.30;;;25.31;27.21;99676.41;5059216;28;20051;-45
2021/05/22 09:38:51;;;;;;;0.63;0.52;;;21.60;40.30;;;25.32;27.32;99665.50;5024460;28;20052;-45
2021/05/22 09:41:31;;;;;;;0.70;0.57;;;21.60;40.30;;;25.32;27.44;99667.38;5059276;28;20162;-44
2021/05/22 09:44:15;;;;;;;1.10;0.60;;;21.70;40.20;;;25.38;27.23;99663.25;5046666;28;20055;-45
2021/05/22 09:46:50;;;;;;;1.17;0.77;;;21.70;40.10;;;25.43;27.20;99667.13;5041148;28;20105;-46
2021/05/22 09:49:29;;;;;;;0.60;0.55;;;21.80;40.10;;;25.45;27.29;99667.81;5076082;28;20063;-45
2021/05/22 09:52:15;;;;;;;1.48;0.60;;;21.80;39.90;;;25.43;27.19;99650.25;5059285;28;20067;-44
2021/05/22 09:54:58;;;;;;;1.25;0.70;;;21.80;39.90;;;25.50;27.26;99660.16;5093552;28;20060;-46
2021/05/22 09:57:35;;;;;;;1.33;0.80;;;21.90;39.80;;;25.57;26.98;99664.91;5043792;28;20052;-45
2021/05/22 10:00:16;;;;;;;0.63;0.50;;;21.90;39.70;;;25.58;27.25;99661.25;5075514;28;20052;-44
2021/05/22 10:02:52;;;;;;;;;;;21.90;39.60;;;25.70;26.95;99660.84;5075875;28;20197;-44
2021/05/22 10:05:33;;;;;;;1.38;0.68;;;21.90;39.60;;;25.66;26.95;99662.16;5075484;28;19962;-47
2021/05/22 10:08:01;;;;;;;0.77;0.70;;;21.90;39.60;;;25.61;26.93;99660.94;5075285;28;20512;-44
2021/05/22 10:10:48;;;;;;;0.63;0.60;;;21.90;39.60;;;25.60;27.08;99654.75;5043710;28;20049;-45
2021/05/22 10:13:19;;;;;;;0.63;0.55;;;21.90;39.60;;;25.61;26.86;99653.75;5058451;28;20143;-46
2021/05/22 10:15:48;;;;;;;;;;;22.00;39.60;;;25.74;26.87;99656.00;5044223;28;20051;-46
2021/05/22 10:18:16;;;;;;;1.08;0.60;;;22.00;39.60;;;25.72;26.85;99665.22;5075675;28;19955;-47
2021/05/22 10:20:42;;;;;;;0.63;0.60;;;22.00;39.60;;;25.72;26.77;99667.88;5058454;28;20044;-45
2021/05/22 10:23:10;;;;;;;0.57;0.55;;;22.00;40.00;;;25.68;26.71;99659.34;5093436;28;20479;-46
2021/05/22 10:25:36;;;;;;;1.08;0.70;;;22.00;39.40;;;25.65;26.83;99657.78;5075301;28;20051;-44